• Join FlightAware (Why Join?)
  • Login
  • US Flag 
09:52AM EST


 

Airport Tracker/Info


-or-


 

Live Flight TrackerFlight Track Log ✈ AWI3722 ✈ 05-Apr-2013 ✈ KPWM - KPHL

Flight Track Log - Related Links

Times and Time Zones

All times are in EDT time to prevent confusion due to time zone crossing. See the AWI3722 flight status page for this flight to view local times or setup timezone preferences in your user account.

Time Position Orientation Groundspeed Altitude Reporting Facility
EDT Latitude Longitude Course Direction KTS MPH feet Rate Location/Type
03:39PM 43.5428 -70.1509 226° Southwest  Level FlightAware Approximate
03:39PM 43.5756 -70.4711 225° Southwest 256 295 6,900  Level Boston Center
03:39PM 43.5075 -70.5106 203° Southwest 272 313 9,900 2,924 Climbing Boston Center
03:40PM 43.4754 -70.2471 226° Southwest  Level FlightAware Approximate
03:40PM 43.4394 -70.5528 204° Southwest 272 313 12,700  Level Boston Center
03:41PM 43.4155 -70.3516 226° Southwest  Level FlightAware Approximate
03:41PM 43.3733 -70.5892 202° Southwest 277 319 14,600  Level Boston Center
03:42PM 43.3475 -70.4469 226° Southwest  Level FlightAware Approximate
03:43PM 43.2859 -70.5497 232° Southwest  Level FlightAware Approximate
03:43PM 43.2928 -70.6400 205° Southwest 283 326 16,900  Level Boston Center
03:43PM 43.2289 -70.6819 206° Southwest 283 326 18,900 1,678 Climbing Boston Center
03:44PM 43.1606 -70.7208 203° Southwest 278 320 20,200 1,339 Climbing Boston Center
03:45PM 43.0883 -70.7714 207° Southwest 283 326 21,600 1,289 Climbing Boston Center
03:46PM 43.0164 -70.8244 208° Southwest 289 333 22,800 1,100 Climbing Boston Center
03:47PM 42.9442 -70.8772 208° Southwest 295 339 23,800 992 Climbing Boston Center
03:49PM 42.8697 -70.9303 208° Southwest 302 348 24,800 1,008 Climbing Boston Center
03:49PM 42.7975 -70.9914 212° Southwest 307 353 25,800 605 Climbing Boston Center
03:50PM 42.7275 -71.0553 214° Southwest 313 360 26,000 99 Climbing Boston Center
03:51PM 42.6514 -71.1275 215° Southwest 324 373 26,000  Level Boston Center
03:53PM 42.5750 -71.1967 214° Southwest 330 380 26,000  Level Boston Center
03:54PM 42.4944 -71.2744 215° Southwest 344 396 26,000  Level Boston Center
03:54PM 42.4139 -71.3461 213° Southwest 349 402 26,000  Level Boston Center
03:55PM 42.3353 -71.4206 215° Southwest 349 402 26,000  Level Boston Center
03:56PM 42.2569 -71.4919 214° Southwest 354 407 26,000  Level Boston Center
03:57PM 42.1636 -71.5689 211° Southwest 354 407 26,000  Level Boston Center
03:58PM 42.0850 -71.6428 215° Southwest 359 413 26,000  Level Boston Center
04:00PM 42.0042 -71.7164 214° Southwest 359 413 26,000  Level Boston Center
04:01PM 41.9256 -71.7872 214° Southwest 354 407 26,000  Level Boston Center
04:01PM 41.8467 -71.8575 214° Southwest 354 407 26,000  Level Boston Center
04:02PM 41.7656 -71.9308 214° Southwest 354 407 26,000  Level Boston Center
04:04PM 41.6825 -72.0036 213° Southwest 354 407 26,000  Level Boston Center
04:05PM 41.6100 -72.0681 214° Southwest 354 407 26,000  Level Boston Center
04:05PM 41.5164 -72.1517 214° Southwest 360 414 26,000  Level Boston Center
04:06PM 41.4311 -72.2242 213° Southwest 360 414 26,000  Level Boston Center
04:07PM 41.3478 -72.2992 214° Southwest 360 414 26,000  Level Boston Center
04:08PM 41.2811 -72.3544 212° Southwest 360 414 26,000  Level Boston Center
04:10PM 41.1894 -72.4428 216° Southwest 365 420 26,000 -397 Level Boston Center
04:11PM 41.1019 -72.5172 213° Southwest 375 432 25,200 -966 Descending Boston Center
04:11PM 41.0103 -72.5969 213° Southwest 387 445 24,100 -1,160 Descending Boston Center
04:12PM 40.9225 -72.6736 213° Southwest 392 451 22,900 -1,131 Descending Boston Center
04:14PM 40.8328 -72.7500 213° Southwest 392 451 21,800 -1,033 Descending Boston Center
04:15PM 40.7472 -72.8236 213° Southwest 392 451 20,800 -581 Descending Boston Center
04:17PM 40.5619 -72.9811 213° Southwest 370 426 20,000 -258 Descending New York Center
04:18PM 40.4814 -73.0522 214° Southwest 359 413 20,000  Level New York Center
04:19PM 40.4008 -73.1203 213° Southwest 354 407 20,000  Level New York Center
04:20PM 40.3181 -73.1911 213° Southwest 354 407 20,000  Level New York Center
04:21PM 40.2356 -73.2614 213° Southwest 354 407 20,000  Level New York Center
04:22PM 40.1528 -73.3319 213° Southwest 354 407 20,000  Level New York Center
04:23PM 40.0719 -73.4019 214° Southwest 354 407 20,000  Level New York Center
04:24PM 40.0181 -73.4758 226° Southwest 354 407 20,000  Level New York Center
04:25PM 39.8811 -73.6528 225° Southwest 358 412 20,000 -36 Level Washington Center
04:26PM 39.8119 -73.7519 228° Southwest 364 419 19,900 -1,000 Descending Washington Center
04:27PM 39.7364 -73.8539 226° Southwest 375 432 18,000 -1,800 Descending Washington Center
04:28PM 39.6708 -73.9417 226° Southwest 372 428 16,300 -1,698 Descending Washington Center
04:29PM 39.6167 -74.0122 225° Southwest 339 390 15,000 -1,818 Descending FAA TRACON SMA TRACON (SMA)
04:29PM 39.5903 -74.0467 225° Southwest 342 394 14,300 -1,317 Descending FAA TRACON SMA TRACON (SMA)
04:30PM 39.5697 -74.0739 226° Southwest 342 394 14,100 -450 Descending FAA TRACON SMA TRACON (SMA)
04:30PM 39.5494 -74.1008 226° Southwest 341 392 14,000  Descending FAA TRACON SMA TRACON (SMA)
04:30PM 39.5292 -74.1372 234° Southwest 318 366 14,100 146 Climbing FAA TRACON SMA TRACON (SMA)
04:31PM 39.5244 -74.1725 260° West 331 381 14,100 -146 Level FAA TRACON SMA TRACON (SMA)
04:31PM 39.5261 -74.2083 273° West 332 382 14,000 -1,077 Descending FAA TRACON SMA TRACON (SMA)
04:31PM 39.5261 -74.2517 270° West 329 379 13,400 -1,692 Descending FAA TRACON SMA TRACON (SMA)
04:32PM 39.5261 -74.2911 270° West 331 381 12,900 -1,463 Descending FAA TRACON SMA TRACON (SMA)
04:32PM 39.5267 -74.3281 271° West 332 382 12,400 -1,500 Descending FAA TRACON SMA TRACON (SMA)
04:32PM 39.5272 -74.3742 271° West 332 382 11,900 -1,500 Descending FAA TRACON SMA TRACON (SMA)
04:33PM 39.5278 -74.4108 271° West 331 381 11,400 -1,463 Descending FAA TRACON SMA TRACON (SMA)
04:33PM 39.5283 -74.4475 271° West 331 381 10,900 -1,692 Descending FAA TRACON SMA TRACON (SMA)
04:33PM 39.5289 -74.4925 271° West 326 375 10,300 -1,231 Descending FAA TRACON SMA TRACON (SMA)
04:34PM 39.5297 -74.5239 272° West 274 315 10,100 -450 Descending FAA TRACON SMA TRACON (SMA)
04:34PM 39.5294 -74.5536 269° West 254 292 10,000 -146 Descending FAA TRACON SMA TRACON (SMA)
04:35PM 39.5314 -74.5869 274° West 257 296 10,000 150 Level FAA TRACON SMA TRACON (SMA)
04:35PM 39.5314 -74.6161 270° West 253 291 10,100 150 Climbing FAA TRACON SMA TRACON (SMA)
04:35PM 39.5317 -74.6453 271° West 263 303 10,100  Level FAA TRACON SMA TRACON (SMA)
04:35PM 39.5317 -74.6842 270° West 268 308 10,100  Level FAA TRACON SMA TRACON (SMA)
04:36PM 39.5325 -74.7139 272° West 267 307 10,100 -439 Level FAA TRACON SMA TRACON (SMA)
04:36PM 39.5333 -74.7425 272° West 268 308 9,800 -1,171 Descending FAA TRACON SMA TRACON (SMA)
04:37PM 39.5336 -74.7792 271° West 258 297 9,300 -1,385 Descending FAA TRACON SMA TRACON (SMA)
04:37PM 39.5342 -74.8061 272° West 251 289 8,900 -1,200 Descending FAA TRACON SMA TRACON (SMA)
04:37PM 39.5344 -74.8322 271° West 242 278 8,500 -1,200 Descending FAA TRACON SMA TRACON (SMA)
04:37PM 39.5350 -74.8642 271° West 234 269 8,100 -750 Descending FAA TRACON SMA TRACON (SMA)
04:38PM 39.5353 -74.8892 271° West 230 265 8,000 -878 Descending FAA TRACON SMA TRACON (SMA)
04:38PM 39.5350 -74.9139 269° West 228 262 7,500 -1,950 Descending FAA TRACON SMA TRACON (SMA)
04:39PM 39.5353 -74.9431 271° West 228 262 6,700 -2,400 Descending FAA TRACON SMA TRACON (SMA)
04:39PM 39.5372 -74.9722 275° West 232 267 5,900 -2,400 Descending FAA TRACON SMA TRACON (SMA)
04:39PM 39.5492 -74.9956 304° West 242 278 5,100 -2,400 Descending FAA TRACON SMA TRACON (SMA)
04:40PM 39.5617 -75.0169 307° West 239 275 4,300 -1,500 Descending FAA TRACON SMA TRACON (SMA)
04:40PM 39.5747 -75.0419 304° West 232 267 4,100 -450 Descending FAA TRACON SMA TRACON (SMA)
04:40PM 39.5878 -75.0622 310° West 227 261 4,000  Descending FAA TRACON SMA TRACON (SMA)
04:41PM 39.6081 -75.0739 336° Northwest 217 250 4,100 -150 Climbing FAA TRACON SMA TRACON (SMA)
04:41PM 39.6272 -75.0842 338° Northwest 232 267 3,900 -900 Descending FAA TRACON SMA TRACON (SMA)
04:41PM 39.6464 -75.0925 341° North 229 264 3,500 -1,077 Descending FAA TRACON SMA TRACON (SMA)
04:41PM 39.6642 -75.1006 341° North 225 259 3,200 -769 Descending FAA TRACON SMA TRACON (SMA)
04:42PM 39.6881 -75.1108 342° North 231 266 3,000 -300 Descending FAA TRACON SMA TRACON (SMA)
04:42PM 39.7061 -75.1192 340° North 231 266 3,000 -300 Level FAA TRACON SMA TRACON (SMA)
04:42PM 39.7228 -75.1308 332° Northwest 206 237 2,800 -732 Descending FAA TRACON SMA TRACON (SMA)
04:43PM 39.7411 -75.1436 332° Northwest 191 220 2,500 -900 Descending FAA TRACON SMA TRACON (SMA)
04:43PM 39.7528 -75.1528 329° Northwest 177 204 2,200 -947 Descending FAA TRACON SMA TRACON (SMA)